sensor_id;sensor_type;location;lat;lon;timestamp;pressure;altitude;pressure_sealevel;temperature;humidity
65800;BME280;52544;48.116;11.660;2022-12-07T00:00:42;95570.28;;;2.29;100.00
65800;BME280;52544;48.116;11.660;2022-12-07T00:03:07;95570.13;;;2.32;100.00
65800;BME280;52544;48.116;11.660;2022-12-07T00:05:32;95567.69;;;2.29;100.00
65800;BME280;52544;48.116;11.660;2022-12-07T00:07:58;95568.91;;;2.39;100.00
65800;BME280;52544;48.116;11.660;2022-12-07T00:10:23;95564.75;;;2.35;100.00
65800;BME280;52544;48.116;11.660;2022-12-07T00:12:49;95566.94;;;2.27;100.00
65800;BME280;52544;48.116;11.660;2022-12-07T00:15:15;95564.75;;;2.35;100.00
65800;BME280;52544;48.116;11.660;2022-12-07T00:17:41;95563.00;;;2.35;100.00
65800;BME280;52544;48.116;11.660;2022-12-07T00:20:06;95563.06;;;2.34;100.00
65800;BME280;52544;48.116;11.660;2022-12-07T00:22:32;95552.63;;;2.34;100.00
65800;BME280;52544;48.116;11.660;2022-12-07T00:24:57;95551.25;;;2.27;100.00
65800;BME280;52544;48.116;11.660;2022-12-07T00:27:23;95551.25;;;2.27;100.00
65800;BME280;52544;48.116;11.660;2022-12-07T00:29:48;95551.41;;;2.23;100.00
65800;BME280;52544;48.116;11.660;2022-12-07T00:32:13;95553.78;;;2.28;100.00
65800;BME280;52544;48.116;11.660;2022-12-07T00:34:39;95548.41;;;2.31;100.00
65800;BME280;52544;48.116;11.660;2022-12-07T00:37:04;95550.91;;;2.33;100.00
65800;BME280;52544;48.116;11.660;2022-12-07T00:39:30;95548.66;;;2.27;100.00
65800;BME280;52544;48.116;11.660;2022-12-07T00:41:55;95547.72;;;2.28;100.00
65800;BME280;52544;48.116;11.660;2022-12-07T00:44:20;95551.56;;;2.20;100.00
65800;BME280;52544;48.116;11.660;2022-12-07T00:46:46;95551.25;;;2.27;100.00
65800;BME280;52544;48.116;11.660;2022-12-07T00:49:11;95549.25;;;2.32;100.00
65800;BME280;52544;48.116;11.660;2022-12-07T00:51:37;95552.94;;;2.28;100.00
65800;BME280;52544;48.116;11.660;2022-12-07T00:54:02;95562.53;;;2.27;100.00
65800;BME280;52544;48.116;11.660;2022-12-07T00:56:28;95554.97;;;2.22;100.00
65800;BME280;52544;48.116;11.660;2022-12-07T00:58:59;95551.31;;;2.25;100.00
65800;BME280;52544;48.116;11.660;2022-12-07T01:01:27;95548.06;;;2.21;100.00
65800;BME280;52544;48.116;11.660;2022-12-07T01:03:53;95552.94;;;2.28;100.00
65800;BME280;52544;48.116;11.660;2022-12-07T01:06:19;95547.22;;;2.21;100.00
65800;BME280;52544;48.116;11.660;2022-12-07T01:08:45;95551.66;;;2.19;100.00
65800;BME280;52544;48.116;11.660;2022-12-07T01:11:16;95544.81;;;2.16;100.00
65800;BME280;52544;48.116;11.660;2022-12-07T01:13:43;95552.66;;;2.16;100.00
65800;BME280;52544;48.116;11.660;2022-12-07T01:16:11;95538.06;;;2.12;100.00
65800;BME280;52544;48.116;11.660;2022-12-07T01:18:37;95554.53;;;2.14;100.00
65800;BME280;52544;48.116;11.660;2022-12-07T01:21:11;95552.31;;;2.07;100.00
65800;BME280;52544;48.116;11.660;2022-12-07T01:23:36;95550.47;;;2.09;100.00
65800;BME280;52544;48.116;11.660;2022-12-07T01:26:04;95545.41;;;2.06;100.00
65800;BME280;52544;48.116;11.660;2022-12-07T01:28:31;95554.16;;;2.05;100.00
65800;BME280;52544;48.116;11.660;2022-12-07T01:31:02;95552.41;;;2.05;100.00
65800;BME280;52544;48.116;11.660;2022-12-07T01:33:30;95555.75;;;2.07;100.00
65800;BME280;52544;48.116;11.660;2022-12-07T01:38:34;95545.31;;;2.07;100.00
65800;BME280;52544;48.116;11.660;2022-12-07T01:41:00;95552.16;;;2.10;100.00
65800;BME280;52544;48.116;11.660;2022-12-07T01:43:29;95552.50;;;2.19;100.00
65800;BME280;52544;48.116;11.660;2022-12-07T01:45:55;95557.47;;;2.08;100.00
65800;BME280;52544;48.116;11.660;2022-12-07T01:48:26;95547.41;;;2.00;100.00
65800;BME280;52544;48.116;11.660;2022-12-07T01:50:53;95555.63;;;1.93;100.00
65800;BME280;52544;48.116;11.660;2022-12-07T01:53:21;95537.72;;;2.03;100.00
65800;BME280;52544;48.116;11.660;2022-12-07T01:55:52;95536.13;;;2.00;100.00
65800;BME280;52544;48.116;11.660;2022-12-07T01:58:18;95554.22;;;2.03;100.00
65800;BME280;52544;48.116;11.660;2022-12-07T02:00:44;95543.63;;;2.06;100.00
65800;BME280;52544;48.116;11.660;2022-12-07T02:03:23;95544.41;;;2.08;100.00
65800;BME280;52544;48.116;11.660;2022-12-07T02:05:51;95538.94;;;2.13;100.00
65800;BME280;52544;48.116;11.660;2022-12-07T02:08:18;95546.59;;;2.16;100.00
65800;BME280;52544;48.116;11.660;2022-12-07T02:10:43;95546.69;;;2.14;100.00
65800;BME280;52544;48.116;11.660;2022-12-07T02:13:15;95543.59;;;2.23;100.00
65800;BME280;52544;48.116;11.660;2022-12-07T02:18:22;95537.09;;;2.15;100.00
65800;BME280;52544;48.116;11.660;2022-12-07T02:21:07;95540.09;;;2.07;100.00
65800;BME280;52544;48.116;11.660;2022-12-07T02:23:40;95541.19;;;2.03;100.00
65800;BME280;52544;48.116;11.660;2022-12-07T02:29:33;95536.13;;;2.00;100.00
65800;BME280;52544;48.116;11.660;2022-12-07T02:32:10;95524.63;;;2.04;100.00
65800;BME280;52544;48.116;11.660;2022-12-07T02:37:25;95529.84;;;2.04;100.00
65800;BME280;52544;48.116;11.660;2022-12-07T02:40:11;95526.44;;;2.02;100.00
65800;BME280;52544;48.116;11.660;2022-12-07T02:42:45;95527.44;;;1.99;100.00
65800;BME280;52544;48.116;11.660;2022-12-07T02:45:15;95530.06;;;1.99;100.00
65800;BME280;52544;48.116;11.660;2022-12-07T02:47:43;95534.84;;;1.91;100.00
65800;BME280;52544;48.116;11.660;2022-12-07T02:50:10;95530.13;;;1.98;100.00
65800;BME280;52544;48.116;11.660;2022-12-07T02:52:36;95526.44;;;2.02;100.00
65800;BME280;52544;48.116;11.660;2022-12-07T02:55:01;95531.81;;;1.99;100.00
65800;BME280;52544;48.116;11.660;2022-12-07T03:00:18;95530.06;;;1.99;100.00
65800;BME280;52544;48.116;11.660;2022-12-07T03:02:52;95526.53;;;2.00;100.00
65800;BME280;52544;48.116;11.660;2022-12-07T03:08:24;95525.50;;;2.03;100.00
65800;BME280;52544;48.116;11.660;2022-12-07T03:11:00;95527.63;;;1.96;100.00
65800;BME280;52544;48.116;11.660;2022-12-07T03:13:59;95525.59;;;2.02;100.00
65800;BME280;52544;48.116;11.660;2022-12-07T03:16:28;95531.38;;;2.08;100.00
65800;BME280;52544;48.116;11.660;2022-12-07T03:19:15;95522.66;;;2.08;100.00
65800;BME280;52544;48.116;11.660;2022-12-07T03:21:46;95519.22;;;2.07;100.00
65800;BME280;52544;48.116;11.660;2022-12-07T03:24:19;95530.59;;;2.06;100.00
65800;BME280;52544;48.116;11.660;2022-12-07T03:26:49;95517.63;;;2.05;100.00
65800;BME280;52544;48.116;11.660;2022-12-07T03:29:24;95526.44;;;2.02;100.00
65800;BME280;52544;48.116;11.660;2022-12-07T03:32:02;95521.72;;;1.93;100.00
65800;BME280;52544;48.116;11.660;2022-12-07T03:34:34;95518.03;;;1.97;100.00
65800;BME280;52544;48.116;11.660;2022-12-07T03:37:09;95525.59;;;2.02;100.00
65800;BME280;52544;48.116;11.660;2022-12-07T03:39:57;95511.38;;;2.07;100.00
65800;BME280;52544;48.116;11.660;2022-12-07T03:42:24;95524.63;;;2.04;100.00
65800;BME280;52544;48.116;11.660;2022-12-07T03:44:50;95518.72;;;2.00;100.00
65800;BME280;52544;48.116;11.660;2022-12-07T03:47:32;95517.69;;;2.03;100.00
65800;BME280;52544;48.116;11.660;2022-12-07T03:50:14;95515.00;;;2.05;100.00
65800;BME280;52544;48.116;11.660;2022-12-07T03:52:54;95516.78;;;2.04;100.00
65800;BME280;52544;48.116;11.660;2022-12-07T03:55:32;95514.22;;;2.03;100.00
65800;BME280;52544;48.116;11.660;2022-12-07T03:58:04;95513.25;;;2.05;100.00
65800;BME280;52544;48.116;11.660;2022-12-07T04:00:30;95513.25;;;2.05;100.00
65800;BME280;52544;48.116;11.660;2022-12-07T04:02:56;95503.53;;;2.07;100.00
65800;BME280;52544;48.116;11.660;2022-12-07T04:05:22;95513.09;;;2.08;100.00
65800;BME280;52544;48.116;11.660;2022-12-07T04:07:48;95507.44;;;2.00;100.00
65800;BME280;52544;48.116;11.660;2022-12-07T04:10:13;95505.41;;;2.05;100.00
65800;BME280;52544;48.116;11.660;2022-12-07T04:12:39;95502.22;;;2.00;100.00
65800;BME280;52544;48.116;11.660;2022-12-07T04:15:05;95505.56;;;2.02;100.00
65800;BME280;52544;48.116;11.660;2022-12-07T04:17:31;95505.56;;;2.02;100.00
65800;BME280;52544;48.116;11.660;2022-12-07T04:19:56;95511.56;;;2.04;100.00
65800;BME280;52544;48.116;11.660;2022-12-07T04:22:22;95503.53;;;2.07;100.00
65800;BME280;52544;48.116;11.660;2022-12-07T04:24:47;95505.41;;;2.05;100.00
65800;BME280;52544;48.116;11.660;2022-12-07T04:27:13;95503.88;;;2.01;100.00
65800;BME280;52544;48.116;11.660;2022-12-07T04:29:38;95504.03;;;1.98;100.00
65800;BME280;52544;48.116;11.660;2022-12-07T04:32:04;95505.91;;;1.96;100.00
65800;BME280;52544;48.116;11.660;2022-12-07T04:34:29;95506.66;;;1.98;100.00
65800;BME280;52544;48.116;11.660;2022-12-07T04:36:55;95500.75;;;1.94;100.00
65800;BME280;52544;48.116;11.660;2022-12-07T04:39:26;95505.13;;;1.94;100.00
65800;BME280;52544;48.116;11.660;2022-12-07T04:41:53;95501.44;;;1.98;100.00
65800;BME280;52544;48.116;11.660;2022-12-07T04:44:19;95512.47;;;2.03;100.00
65800;BME280;52544;48.116;11.660;2022-12-07T04:46:46;95505.72;;;1.99;100.00
65800;BME280;52544;48.116;11.660;2022-12-07T04:49:12;95498.97;;;1.95;100.00
65800;BME280;52544;48.116;11.660;2022-12-07T04:51:38;95508.66;;;1.93;100.00
65800;BME280;52544;48.116;11.660;2022-12-07T04:54:03;95499.84;;;1.95;100.00
65800;BME280;52544;48.116;11.660;2022-12-07T04:56:29;95505.66;;;2.00;100.00
65800;BME280;52544;48.116;11.660;2022-12-07T04:58:54;95504.97;;;1.97;100.00
65800;BME280;52544;48.116;11.660;2022-12-07T05:01:21;95509.41;;;1.95;100.00
65800;BME280;52544;48.116;11.660;2022-12-07T05:03:47;95511.03;;;1.97;100.00
65800;BME280;52544;48.116;11.660;2022-12-07T05:06:13;95505.72;;;1.99;100.00
65800;BME280;52544;48.116;11.660;2022-12-07T05:08:39;95511.13;;;1.96;100.00
65800;BME280;52544;48.116;11.660;2022-12-07T05:11:05;95511.13;;;1.96;100.00
65800;BME280;52544;48.116;11.660;2022-12-07T05:13:31;95515.06;;;2.03;100.00
65800;BME280;52544;48.116;11.660;2022-12-07T05:15:57;95511.97;;;1.96;100.00
65800;BME280;52544;48.116;11.660;2022-12-07T05:18:23;95511.13;;;1.96;100.00
65800;BME280;52544;48.116;11.660;2022-12-07T05:20:48;95515.16;;;2.02;100.00
65800;BME280;52544;48.116;11.660;2022-12-07T05:23:14;95507.72;;;1.94;100.00
65800;BME280;52544;48.116;11.660;2022-12-07T05:25:40;95514.03;;;1.90;100.00
65800;BME280;52544;48.116;11.660;2022-12-07T05:28:05;95513.09;;;1.91;100.00
65800;BME280;52544;48.116;11.660;2022-12-07T05:30:31;95515.72;;;1.91;100.00
65800;BME280;52544;48.116;11.660;2022-12-07T05:32:57;95504.53;;;1.89;100.00
65800;BME280;52544;48.116;11.660;2022-12-07T05:35:22;95511.56;;;1.87;100.00
65800;BME280;52544;48.116;11.660;2022-12-07T05:37:48;95502.00;;;1.87;100.00
65800;BME280;52544;48.116;11.660;2022-12-07T05:40:14;95505.28;;;1.91;100.00
65800;BME280;52544;48.116;11.660;2022-12-07T05:42:40;95504.53;;;1.89;100.00
65800;BME280;52544;48.116;11.660;2022-12-07T05:45:06;95504.69;;;1.86;100.00
65800;BME280;52544;48.116;11.660;2022-12-07T05:47:32;95505.84;;;1.80;100.00
65800;BME280;52544;48.116;11.660;2022-12-07T05:49:57;95503.16;;;1.82;100.00
65800;BME280;52544;48.116;11.660;2022-12-07T05:52:23;95503.34;;;1.79;100.00
65800;BME280;52544;48.116;11.660;2022-12-07T05:54:48;95500.53;;;1.82;100.00
65800;BME280;52544;48.116;11.660;2022-12-07T05:57:14;95507.03;;;1.74;100.00
65800;BME280;52544;48.116;11.660;2022-12-07T05:59:39;95514.84;;;1.74;100.00
65800;BME280;52544;48.116;11.660;2022-12-07T06:02:10;95511.91;;;1.81;100.00
65800;BME280;52544;48.116;11.660;2022-12-07T06:04:43;95513.78;;;1.79;100.00
65800;BME280;52544;48.116;11.660;2022-12-07T06:07:09;95515.44;;;1.80;100.00
65800;BME280;52544;48.116;11.660;2022-12-07T06:09:35;95517.97;;;1.81;100.00
65800;BME280;52544;48.116;11.660;2022-12-07T06:12:01;95517.66;;;1.87;100.00
65800;BME280;52544;48.116;11.660;2022-12-07T06:14:45;95516.19;;;1.82;100.00
65800;BME280;52544;48.116;11.660;2022-12-07T06:17:11;95519.84;;;1.79;100.00
65800;BME280;52544;48.116;11.660;2022-12-07T06:19:38;95529.69;;;1.90;100.00
65800;BME280;52544;48.116;11.660;2022-12-07T06:22:04;95522.03;;;1.87;100.00
65800;BME280;52544;48.116;11.660;2022-12-07T06:24:30;95524.03;;;1.82;100.00
65800;BME280;52544;48.116;11.660;2022-12-07T06:26:56;95528.25;;;1.84;100.00
65800;BME280;52544;48.116;11.660;2022-12-07T06:29:21;95531.09;;;1.80;100.00
65800;BME280;52544;48.116;11.660;2022-12-07T06:31:47;95521.81;;;1.74;100.00
65800;BME280;52544;48.116;11.660;2022-12-07T06:34:19;95535.72;;;1.74;100.00
65800;BME280;52544;48.116;11.660;2022-12-07T06:36:46;95529.44;;;1.79;100.00
65800;BME280;52544;48.116;11.660;2022-12-07T06:39:17;95529.44;;;1.79;100.00
65800;BME280;52544;48.116;11.660;2022-12-07T06:41:42;95530.41;;;1.76;100.00
65800;BME280;52544;48.116;11.660;2022-12-07T06:44:08;95539.47;;;1.69;100.00
65800;BME280;52544;48.116;11.660;2022-12-07T06:46:33;95529.88;;;1.69;100.00
65800;BME280;52544;48.116;11.660;2022-12-07T06:49:00;95527.34;;;1.68;100.00
65800;BME280;52544;48.116;11.660;2022-12-07T06:51:25;95527.91;;;1.74;100.00
65800;BME280;52544;48.116;11.660;2022-12-07T06:53:51;95535.09;;;1.69;100.00
65800;BME280;52544;48.116;11.660;2022-12-07T06:56:16;95548.84;;;1.73;100.00
65800;BME280;52544;48.116;11.660;2022-12-07T06:58:42;95536.94;;;1.67;100.00
65800;BME280;52544;48.116;11.660;2022-12-07T07:01:12;95542.03;;;1.70;100.00
65800;BME280;52544;48.116;11.660;2022-12-07T07:03:38;95547.25;;;1.70;100.00
65800;BME280;52544;48.116;11.660;2022-12-07T07:06:03;95536.94;;;1.67;100.00
65800;BME280;52544;48.116;11.660;2022-12-07T07:08:29;95547.53;;;1.64;100.00
65800;BME280;52544;48.116;11.660;2022-12-07T07:10:54;95542.16;;;1.67;100.00
65800;BME280;52544;48.116;11.660;2022-12-07T07:13:20;95543.84;;;1.68;100.00
65800;BME280;52544;48.116;11.660;2022-12-07T07:15:45;95544.69;;;1.69;100.00
65800;BME280;52544;48.116;11.660;2022-12-07T07:18:11;95545.78;;;1.65;100.00
65800;BME280;52544;48.116;11.660;2022-12-07T07:20:37;95548.84;;;1.73;100.00
65800;BME280;52544;48.116;11.660;2022-12-07T07:23:02;95545.38;;;1.72;100.00
65800;BME280;52544;48.116;11.660;2022-12-07T07:25:28;95547.75;;;1.77;100.00
65800;BME280;52544;48.116;11.660;2022-12-07T07:27:53;95552.81;;;1.80;100.00
65800;BME280;52544;48.116;11.660;2022-12-07T07:30:19;95545.53;;;1.69;100.00
65800;BME280;52544;48.116;11.660;2022-12-07T07:32:44;95551.53;;;1.71;100.00
65800;BME280;52544;48.116;11.660;2022-12-07T07:35:10;95562.56;;;1.77;100.00
65800;BME280;52544;48.116;11.660;2022-12-07T07:37:35;95562.91;;;1.70;100.00
65800;BME280;52544;48.116;11.660;2022-12-07T07:40:00;95564.25;;;1.78;100.00
65800;BME280;52544;48.116;11.660;2022-12-07T07:42:26;95560.88;;;1.75;100.00
65800;BME280;52544;48.116;11.660;2022-12-07T07:44:51;95565.97;;;1.79;100.00
65800;BME280;52544;48.116;11.660;2022-12-07T07:47:17;95563.34;;;1.79;100.00
65800;BME280;52544;48.116;11.660;2022-12-07T07:49:42;95562.41;;;1.80;100.00
65800;BME280;52544;48.116;11.660;2022-12-07T07:52:07;95562.41;;;1.80;100.00
65800;BME280;52544;48.116;11.660;2022-12-07T07:54:33;95565.41;;;1.72;100.00
65800;BME280;52544;48.116;11.660;2022-12-07T07:56:58;95568.16;;;1.86;100.00
65800;BME280;52544;48.116;11.660;2022-12-07T07:59:23;95566.00;;;1.94;100.00
65800;BME280;52544;48.116;11.660;2022-12-07T08:01:50;95566.47;;;1.85;100.00
65800;BME280;52544;48.116;11.660;2022-12-07T08:04:15;95571.09;;;1.80;100.00
65800;BME280;52544;48.116;11.660;2022-12-07T08:06:41;95573.00;;;1.77;100.00
65800;BME280;52544;48.116;11.660;2022-12-07T08:09:07;95570.41;;;1.77;100.00
65800;BME280;52544;48.116;11.660;2022-12-07T08:11:33;95568.56;;;1.79;100.00
65800;BME280;52544;48.116;11.660;2022-12-07T08:13:59;95569.69;;;1.90;100.00
65800;BME280;52544;48.116;11.660;2022-12-07T08:16:24;95568.25;;;1.85;100.00
65800;BME280;52544;48.116;11.660;2022-12-07T08:18:49;95565.78;;;1.82;100.00
65800;BME280;52544;48.116;11.660;2022-12-07T08:21:15;95571.22;;;1.77;100.00
65800;BME280;52544;48.116;11.660;2022-12-07T08:23:41;95566.63;;;1.82;100.00
65800;BME280;52544;48.116;11.660;2022-12-07T08:26:09;95572.84;;;1.80;100.00
65800;BME280;52544;48.116;11.660;2022-12-07T08:28:35;95567.63;;;1.80;100.00
65800;BME280;52544;48.116;11.660;2022-12-07T08:31:05;95565.78;;;1.82;100.00
65800;BME280;52544;48.116;11.660;2022-12-07T08:33:32;95578.06;;;1.80;100.00
65800;BME280;52544;48.116;11.660;2022-12-07T08:36:05;95577.06;;;1.82;100.00
65800;BME280;52544;48.116;11.660;2022-12-07T08:38:31;95574.31;;;1.85;100.00
65800;BME280;52544;48.116;11.660;2022-12-07T08:40:58;95578.81;;;1.82;100.00
65800;BME280;52544;48.116;11.660;2022-12-07T08:43:24;95571.78;;;1.84;100.00
65800;BME280;52544;48.116;11.660;2022-12-07T08:46:26;95569.00;;;1.87;100.00
65800;BME280;52544;48.116;11.660;2022-12-07T08:48:58;95571.53;;;1.88;100.00
65800;BME280;52544;48.116;11.660;2022-12-07T08:51:27;95569.44;;;1.95;100.00
65800;BME280;52544;48.116;11.660;2022-12-07T08:53:53;95572.75;;;1.98;100.00
65800;BME280;52544;48.116;11.660;2022-12-07T08:56:19;95578.66;;;2.02;100.00
65800;BME280;52544;48.116;11.660;2022-12-07T08:58:45;95587.09;;;2.07;100.00
65800;BME280;52544;48.116;11.660;2022-12-07T09:01:10;95576.50;;;2.10;100.00
65800;BME280;52544;48.116;11.660;2022-12-07T09:03:35;95571.28;;;2.10;100.00
65800;BME280;52544;48.116;11.660;2022-12-07T09:06:01;95578.16;;;2.11;100.00
65800;BME280;52544;48.116;11.660;2022-12-07T09:08:30;95578.94;;;2.13;100.00
65800;BME280;52544;48.116;11.660;2022-12-07T09:10:57;95583.25;;;2.14;100.00
65800;BME280;52544;48.116;11.660;2022-12-07T09:13:22;95581.56;;;2.13;100.00
65800;BME280;52544;48.116;11.660;2022-12-07T09:15:48;95583.38;;;2.11;100.00
65800;BME280;52544;48.116;11.660;2022-12-07T09:18:13;95581.38;;;2.16;100.00
65800;BME280;52544;48.116;11.660;2022-12-07T09:20:39;95574.16;;;2.21;100.00
65800;BME280;52544;48.116;11.660;2022-12-07T09:23:05;95570.53;;;2.24;100.00
65800;BME280;52544;48.116;11.660;2022-12-07T09:25:32;95568.69;;;2.26;100.00
65800;BME280;52544;48.116;11.660;2022-12-07T09:27:58;95569.09;;;2.18;100.00
65800;BME280;52544;48.116;11.660;2022-12-07T09:30:24;95570.78;;;2.19;100.00
65800;BME280;52544;48.116;11.660;2022-12-07T09:32:53;95572.41;;;2.22;100.00
65800;BME280;52544;48.116;11.660;2022-12-07T09:35:19;95572.47;;;2.20;100.00
65800;BME280;52544;48.116;11.660;2022-12-07T09:37:44;95567.53;;;2.32;100.00
65800;BME280;52544;48.116;11.660;2022-12-07T09:40:10;95575.13;;;2.36;100.00
65800;BME280;52544;48.116;11.660;2022-12-07T09:42:37;95572.78;;;2.47;100.00
65800;BME280;52544;48.116;11.660;2022-12-07T09:45:06;95558.88;;;2.47;100.00
65800;BME280;52544;48.116;11.660;2022-12-07T09:47:33;95557.44;;;2.57;100.00
65800;BME280;52544;48.116;11.660;2022-12-07T09:50:10;95561.16;;;2.69;100.00
65800;BME280;52544;48.116;11.660;2022-12-07T09:52:37;95560.91;;;2.73;100.00
65800;BME280;52544;48.116;11.660;2022-12-07T09:55:03;95558.78;;;2.80;100.00
65800;BME280;52544;48.116;11.660;2022-12-07T09:57:31;95557.22;;;2.78;100.00
65800;BME280;52544;48.116;11.660;2022-12-07T10:00:01;95555.84;;;2.86;100.00
65800;BME280;52544;48.116;11.660;2022-12-07T10:02:37;95557.38;;;2.90;100.00
65800;BME280;52544;48.116;11.660;2022-12-07T10:05:06;95550.78;;;2.99;100.00
65800;BME280;52544;48.116;11.660;2022-12-07T10:07:32;95544.53;;;3.01;100.00
65800;BME280;52544;48.116;11.660;2022-12-07T10:09:57;95549.69;;;3.03;100.00
65800;BME280;52544;48.116;11.660;2022-12-07T10:12:23;95539.22;;;3.19;100.00
65800;BME280;52544;48.116;11.660;2022-12-07T10:15:14;95553.03;;;3.21;100.00
65800;BME280;52544;48.116;11.660;2022-12-07T10:17:47;95544.19;;;3.23;100.00
65800;BME280;52544;48.116;11.660;2022-12-07T10:20:17;95538.75;;;3.26;100.00
65800;BME280;52544;48.116;11.660;2022-12-07T10:23:05;95536.91;;;3.29;100.00
65800;BME280;52544;48.116;11.660;2022-12-07T10:25:38;95527.50;;;3.40;100.00
65800;BME280;52544;48.116;11.660;2022-12-07T10:28:11;95530.25;;;3.53;100.00
65800;BME280;52544;48.116;11.660;2022-12-07T10:31:01;95530.44;;;3.50;100.00
65800;BME280;52544;48.116;11.660;2022-12-07T10:35:58;95531.22;;;3.66;100.00
65800;BME280;52544;48.116;11.660;2022-12-07T10:38:25;95530.44;;;3.64;98.37
65800;BME280;52544;48.116;11.660;2022-12-07T10:41:04;95530.84;;;3.72;97.82
65800;BME280;52544;48.116;11.660;2022-12-07T10:43:29;95530.84;;;3.72;96.50
65800;BME280;52544;48.116;11.660;2022-12-07T10:51:58;95524.78;;;3.86;96.12
65800;BME280;52544;48.116;11.660;2022-12-07T10:54:41;95519.56;;;4.00;91.84
65800;BME280;52544;48.116;11.660;2022-12-07T11:00:01;95511.78;;;3.99;89.81
65800;BME280;52544;48.116;11.660;2022-12-07T11:08:15;95499.38;;;4.58;88.38
65800;BME280;52544;48.116;11.660;2022-12-07T11:11:06;95489.56;;;4.62;88.53
65800;BME280;52544;48.116;11.660;2022-12-07T11:13:47;95487.28;;;4.70;88.81
65800;BME280;52544;48.116;11.660;2022-12-07T11:16:21;95491.09;;;4.93;88.22
65800;BME280;52544;48.116;11.660;2022-12-07T11:24:27;95483.41;;;5.69;83.43
65800;BME280;52544;48.116;11.660;2022-12-07T11:27:13;95482.47;;;5.96;80.93
65800;BME280;52544;48.116;11.660;2022-12-07T11:30:08;95483.13;;;6.12;80.97
65800;BME280;52544;48.116;11.660;2022-12-07T11:35:45;95463.50;;;6.42;77.26
65800;BME280;52544;48.116;11.660;2022-12-07T11:38:17;95469.19;;;6.36;76.24
65800;BME280;52544;48.116;11.660;2022-12-07T11:40:46;95467.16;;;6.52;74.89
65800;BME280;52544;48.116;11.660;2022-12-07T11:43:31;95467.44;;;6.11;76.52
65800;BME280;52544;48.116;11.660;2022-12-07T11:46:04;95467.31;;;5.74;77.18
65800;BME280;52544;48.116;11.660;2022-12-07T11:51:01;95468.47;;;5.17;80.71
65800;BME280;52544;48.116;11.660;2022-12-07T11:53:36;95456.31;;;5.16;81.79
65800;BME280;52544;48.116;11.660;2022-12-07T11:56:19;95452.94;;;5.01;82.07
65800;BME280;52544;48.116;11.660;2022-12-07T12:03:51;95436.94;;;4.65;73.46
65800;BME280;52544;48.116;11.660;2022-12-07T12:06:17;95442.69;;;4.57;74.06
65800;BME280;52544;48.116;11.660;2022-12-07T12:08:54;95448.41;;;4.49;75.56
65800;BME280;52544;48.116;11.660;2022-12-07T12:14:48;95438.69;;;4.37;78.97
65800;BME280;52544;48.116;11.660;2022-12-07T12:20:15;95432.44;;;4.40;83.48
65800;BME280;52544;48.116;11.660;2022-12-07T12:22:48;95435.81;;;4.42;83.63
65800;BME280;52544;48.116;11.660;2022-12-07T12:25:22;95424.34;;;4.57;83.52
65800;BME280;52544;48.116;11.660;2022-12-07T12:27:50;95418.53;;;4.79;78.98
65800;BME280;52544;48.116;11.660;2022-12-07T12:30:36;95417.53;;;4.94;78.06
65800;BME280;52544;48.116;11.660;2022-12-07T12:33:04;95414.63;;;4.99;84.88
65800;BME280;52544;48.116;11.660;2022-12-07T12:35:35;95419.22;;;4.95;84.97
65800;BME280;52544;48.116;11.660;2022-12-07T12:38:32;95418.81;;;4.89;85.90
65800;BME280;52544;48.116;11.660;2022-12-07T12:41:01;95424.63;;;4.80;86.22
65800;BME280;52544;48.116;11.660;2022-12-07T12:43:48;95430.34;;;4.59;88.65
65800;BME280;52544;48.116;11.660;2022-12-07T12:49:10;95416.47;;;4.30;90.12
65800;BME280;52544;48.116;11.660;2022-12-07T12:51:41;95412.50;;;4.37;89.75
65800;BME280;52544;48.116;11.660;2022-12-07T12:54:14;95425.50;;;4.39;91.12
65800;BME280;52544;48.116;11.660;2022-12-07T12:59:33;95415.84;;;4.81;85.74
65800;BME280;52544;48.116;11.660;2022-12-07T13:02:21;95407.03;;;4.82;85.07
65800;BME280;52544;48.116;11.660;2022-12-07T13:05:19;95408.00;;;4.66;86.25
65800;BME280;52544;48.116;11.660;2022-12-07T13:15:56;95404.63;;;4.37;88.81
65800;BME280;52544;48.116;11.660;2022-12-07T13:18:40;95410.16;;;4.47;88.13
65800;BME280;52544;48.116;11.660;2022-12-07T13:26:20;95392.81;;;4.71;85.71
65800;BME280;52544;48.116;11.660;2022-12-07T13:29:14;95393.50;;;4.88;84.50
65800;BME280;52544;48.116;11.660;2022-12-07T13:31:43;95396.69;;;4.93;84.58
65800;BME280;52544;48.116;11.660;2022-12-07T13:34:35;95392.41;;;5.43;84.85
65800;BME280;52544;48.116;11.660;2022-12-07T13:39:55;95399.88;;;5.23;77.21
65800;BME280;52544;48.116;11.660;2022-12-07T13:44:55;95396.34;;;4.85;78.24
65800;BME280;52544;48.116;11.660;2022-12-07T13:50:22;95401.09;;;4.65;78.52
65800;BME280;52544;48.116;11.660;2022-12-07T13:52:48;95391.59;;;4.50;79.64
65800;BME280;52544;48.116;11.660;2022-12-07T13:55:16;95382.09;;;4.35;80.17
65800;BME280;52544;48.116;11.660;2022-12-07T13:57:44;95391.16;;;4.16;81.63
65800;BME280;52544;48.116;11.660;2022-12-07T14:00:16;95391.69;;;4.07;81.71
65800;BME280;52544;48.116;11.660;2022-12-07T14:02:56;95387.03;;;4.12;81.65
65800;BME280;52544;48.116;11.660;2022-12-07T14:05:26;95389.22;;;3.91;83.52
65800;BME280;52544;48.116;11.660;2022-12-07T14:07:57;95393.97;;;3.85;85.55
65800;BME280;52544;48.116;11.660;2022-12-07T14:10:27;95396.31;;;3.89;85.61
65800;BME280;52544;48.116;11.660;2022-12-07T14:12:53;95389.13;;;3.93;85.57
65800;BME280;52544;48.116;11.660;2022-12-07T14:15:24;95386.31;;;3.96;85.76
65800;BME280;52544;48.116;11.660;2022-12-07T14:17:53;95383.97;;;3.91;84.22
65800;BME280;52544;48.116;11.660;2022-12-07T14:20:38;95392.88;;;3.74;85.22
65800;BME280;52544;48.116;11.660;2022-12-07T14:23:04;95393.25;;;3.68;85.27
65800;BME280;52544;48.116;11.660;2022-12-07T14:25:47;95398.66;;;3.80;84.36
65800;BME280;52544;48.116;11.660;2022-12-07T14:28:31;95391.75;;;3.64;85.77